sensor_id;sensor_type;location;lat;lon;timestamp;temperature;humidity
56044;DHT22;41912;51.022;3.664;2023-02-15T00:01:41;4.50;99.90
56044;DHT22;41912;51.022;3.664;2023-02-15T00:04:08;4.40;99.90
56044;DHT22;41912;51.022;3.664;2023-02-15T00:06:34;4.40;99.90
56044;DHT22;41912;51.022;3.664;2023-02-15T00:09:00;4.40;99.90
56044;DHT22;41912;51.022;3.664;2023-02-15T00:11:26;4.30;99.90
56044;DHT22;41912;51.022;3.664;2023-02-15T00:16:44;4.20;99.90
56044;DHT22;41912;51.022;3.664;2023-02-15T00:19:11;4.20;99.90
56044;DHT22;41912;51.022;3.664;2023-02-15T00:21:38;4.10;99.90
56044;DHT22;41912;51.022;3.664;2023-02-15T00:24:06;4.10;99.90
56044;DHT22;41912;51.022;3.664;2023-02-15T00:26:33;4.10;99.90
56044;DHT22;41912;51.022;3.664;2023-02-15T00:28:59;4.20;99.90
56044;DHT22;41912;51.022;3.664;2023-02-15T00:31:25;4.10;99.90
56044;DHT22;41912;51.022;3.664;2023-02-15T00:33:51;4.10;99.90
56044;DHT22;41912;51.022;3.664;2023-02-15T00:36:16;4.10;99.90
56044;DHT22;41912;51.022;3.664;2023-02-15T00:38:42;4.10;99.90
56044;DHT22;41912;51.022;3.664;2023-02-15T00:41:08;4.10;99.90
56044;DHT22;41912;51.022;3.664;2023-02-15T00:43:43;4.10;99.90
56044;DHT22;41912;51.022;3.664;2023-02-15T00:46:08;3.90;99.90
56044;DHT22;41912;51.022;3.664;2023-02-15T00:48:34;4.00;99.90
56044;DHT22;41912;51.022;3.664;2023-02-15T00:51:00;4.00;99.90
56044;DHT22;41912;51.022;3.664;2023-02-15T00:53:27;3.90;99.90
56044;DHT22;41912;51.022;3.664;2023-02-15T00:55:53;3.90;99.90
56044;DHT22;41912;51.022;3.664;2023-02-15T00:58:18;3.90;99.90
56044;DHT22;41912;51.022;3.664;2023-02-15T01:00:45;3.80;99.90
56044;DHT22;41912;51.022;3.664;2023-02-15T01:03:13;3.80;99.90
56044;DHT22;41912;51.022;3.664;2023-02-15T01:05:39;3.80;99.90
56044;DHT22;41912;51.022;3.664;2023-02-15T01:08:05;3.70;99.90
56044;DHT22;41912;51.022;3.664;2023-02-15T01:10:31;3.70;99.90
56044;DHT22;41912;51.022;3.664;2023-02-15T01:13:09;3.70;99.90
56044;DHT22;41912;51.022;3.664;2023-02-15T01:15:35;3.80;99.90
56044;DHT22;41912;51.022;3.664;2023-02-15T01:18:01;3.70;99.90
56044;DHT22;41912;51.022;3.664;2023-02-15T01:20:28;3.70;99.90
56044;DHT22;41912;51.022;3.664;2023-02-15T01:22:54;3.70;99.90
56044;DHT22;41912;51.022;3.664;2023-02-15T01:25:23;3.70;99.90
56044;DHT22;41912;51.022;3.664;2023-02-15T01:27:49;3.70;99.90
56044;DHT22;41912;51.022;3.664;2023-02-15T01:30:15;3.60;99.90
56044;DHT22;41912;51.022;3.664;2023-02-15T01:32:42;3.60;99.90
56044;DHT22;41912;51.022;3.664;2023-02-15T01:35:09;3.60;99.90
56044;DHT22;41912;51.022;3.664;2023-02-15T01:37:35;3.60;99.90
56044;DHT22;41912;51.022;3.664;2023-02-15T01:40:02;3.60;99.90
56044;DHT22;41912;51.022;3.664;2023-02-15T01:42:29;3.60;99.90
56044;DHT22;41912;51.022;3.664;2023-02-15T01:45:01;3.60;99.90
56044;DHT22;41912;51.022;3.664;2023-02-15T01:47:40;3.60;99.90
56044;DHT22;41912;51.022;3.664;2023-02-15T01:50:39;3.60;99.90
56044;DHT22;41912;51.022;3.664;2023-02-15T01:56:01;3.50;99.90
56044;DHT22;41912;51.022;3.664;2023-02-15T01:58:28;3.40;99.90
56044;DHT22;41912;51.022;3.664;2023-02-15T02:00:56;3.40;99.90
56044;DHT22;41912;51.022;3.664;2023-02-15T02:08:56;3.40;99.90
56044;DHT22;41912;51.022;3.664;2023-02-15T02:11:22;3.40;99.90
56044;DHT22;41912;51.022;3.664;2023-02-15T02:13:48;3.30;99.90
56044;DHT22;41912;51.022;3.664;2023-02-15T02:16:23;3.40;99.90
56044;DHT22;41912;51.022;3.664;2023-02-15T02:19:16;3.30;99.90
56044;DHT22;41912;51.022;3.664;2023-02-15T02:35:57;3.20;99.90
56044;DHT22;41912;51.022;3.664;2023-02-15T02:42:05;3.10;99.90
56044;DHT22;41912;51.022;3.664;2023-02-15T02:44:44;3.10;99.90
56044;DHT22;41912;51.022;3.664;2023-02-15T02:47:23;3.10;99.90
56044;DHT22;41912;51.022;3.664;2023-02-15T02:49:58;3.10;99.90
56044;DHT22;41912;51.022;3.664;2023-02-15T02:52:42;3.10;99.90
56044;DHT22;41912;51.022;3.664;2023-02-15T02:55:46;3.10;99.90
56044;DHT22;41912;51.022;3.664;2023-02-15T02:58:31;3.10;99.90
56044;DHT22;41912;51.022;3.664;2023-02-15T03:01:02;3.00;99.90
56044;DHT22;41912;51.022;3.664;2023-02-15T03:06:00;3.00;99.90
56044;DHT22;41912;51.022;3.664;2023-02-15T03:08:35;3.00;99.90
56044;DHT22;41912;51.022;3.664;2023-02-15T03:11:03;3.00;99.90
56044;DHT22;41912;51.022;3.664;2023-02-15T03:13:30;3.00;99.90
56044;DHT22;41912;51.022;3.664;2023-02-15T03:15:56;3.00;99.90
56044;DHT22;41912;51.022;3.664;2023-02-15T03:18:47;3.00;99.90
56044;DHT22;41912;51.022;3.664;2023-02-15T03:21:21;2.90;99.90
56044;DHT22;41912;51.022;3.664;2023-02-15T03:23:58;2.90;99.90
56044;DHT22;41912;51.022;3.664;2023-02-15T03:26:26;2.90;99.90
56044;DHT22;41912;51.022;3.664;2023-02-15T03:28:55;2.90;99.90
56044;DHT22;41912;51.022;3.664;2023-02-15T03:31:38;2.90;99.90
56044;DHT22;41912;51.022;3.664;2023-02-15T03:34:09;2.90;99.90
56044;DHT22;41912;51.022;3.664;2023-02-15T03:36:44;2.90;99.90
56044;DHT22;41912;51.022;3.664;2023-02-15T03:42:17;2.90;99.90
56044;DHT22;41912;51.022;3.664;2023-02-15T03:47:17;2.80;99.90
56044;DHT22;41912;51.022;3.664;2023-02-15T03:50:01;2.80;99.90
56044;DHT22;41912;51.022;3.664;2023-02-15T03:52:29;2.80;99.90
56044;DHT22;41912;51.022;3.664;2023-02-15T03:54:56;2.80;99.90
56044;DHT22;41912;51.022;3.664;2023-02-15T03:57:28;2.80;99.90
56044;DHT22;41912;51.022;3.664;2023-02-15T04:03:08;2.70;99.90
56044;DHT22;41912;51.022;3.664;2023-02-15T04:05:35;2.70;99.90
56044;DHT22;41912;51.022;3.664;2023-02-15T04:08:01;2.70;99.90
56044;DHT22;41912;51.022;3.664;2023-02-15T04:10:27;2.70;99.90
56044;DHT22;41912;51.022;3.664;2023-02-15T04:13:11;2.70;99.90
56044;DHT22;41912;51.022;3.664;2023-02-15T04:15:37;2.60;99.90
56044;DHT22;41912;51.022;3.664;2023-02-15T04:18:21;2.60;99.90
56044;DHT22;41912;51.022;3.664;2023-02-15T04:20:46;2.60;99.90
56044;DHT22;41912;51.022;3.664;2023-02-15T04:23:31;2.60;99.90
56044;DHT22;41912;51.022;3.664;2023-02-15T04:26:15;2.60;99.90
56044;DHT22;41912;51.022;3.664;2023-02-15T04:28:41;2.50;99.90
56044;DHT22;41912;51.022;3.664;2023-02-15T04:31:07;2.60;99.90
56044;DHT22;41912;51.022;3.664;2023-02-15T04:33:33;2.50;99.90
56044;DHT22;41912;51.022;3.664;2023-02-15T04:35:58;2.50;99.90
56044;DHT22;41912;51.022;3.664;2023-02-15T04:38:24;2.50;99.90
56044;DHT22;41912;51.022;3.664;2023-02-15T04:40:51;2.50;99.90
56044;DHT22;41912;51.022;3.664;2023-02-15T04:43:18;2.50;99.90
56044;DHT22;41912;51.022;3.664;2023-02-15T04:45:48;2.50;99.90
56044;DHT22;41912;51.022;3.664;2023-02-15T04:48:15;2.50;99.90
56044;DHT22;41912;51.022;3.664;2023-02-15T04:50:41;2.50;99.90
56044;DHT22;41912;51.022;3.664;2023-02-15T04:53:07;2.50;99.90
56044;DHT22;41912;51.022;3.664;2023-02-15T04:55:33;2.50;99.90
56044;DHT22;41912;51.022;3.664;2023-02-15T04:57:58;2.50;99.90
56044;DHT22;41912;51.022;3.664;2023-02-15T05:00:24;2.50;99.90
56044;DHT22;41912;51.022;3.664;2023-02-15T05:02:50;2.50;99.90
56044;DHT22;41912;51.022;3.664;2023-02-15T05:05:15;2.50;99.90
56044;DHT22;41912;51.022;3.664;2023-02-15T05:07:41;2.50;99.90
56044;DHT22;41912;51.022;3.664;2023-02-15T05:10:07;2.50;99.90
56044;DHT22;41912;51.022;3.664;2023-02-15T05:12:33;2.40;99.90
56044;DHT22;41912;51.022;3.664;2023-02-15T05:14:58;2.40;99.90
56044;DHT22;41912;51.022;3.664;2023-02-15T05:17:24;2.40;99.90
56044;DHT22;41912;51.022;3.664;2023-02-15T05:19:50;2.40;99.90
56044;DHT22;41912;51.022;3.664;2023-02-15T05:22:15;2.40;99.90
56044;DHT22;41912;51.022;3.664;2023-02-15T05:24:41;2.40;99.90
56044;DHT22;41912;51.022;3.664;2023-02-15T05:29:50;2.30;99.90
56044;DHT22;41912;51.022;3.664;2023-02-15T05:32:28;2.30;99.90
56044;DHT22;41912;51.022;3.664;2023-02-15T05:37:19;2.30;99.90
56044;DHT22;41912;51.022;3.664;2023-02-15T05:39:50;2.30;99.90
56044;DHT22;41912;51.022;3.664;2023-02-15T05:42:16;2.30;99.90
56044;DHT22;41912;51.022;3.664;2023-02-15T05:44:42;2.40;99.90
56044;DHT22;41912;51.022;3.664;2023-02-15T05:47:07;2.40;99.90
56044;DHT22;41912;51.022;3.664;2023-02-15T05:49:33;2.40;99.90
56044;DHT22;41912;51.022;3.664;2023-02-15T05:51:58;2.30;99.90
56044;DHT22;41912;51.022;3.664;2023-02-15T05:54:24;2.30;99.90
56044;DHT22;41912;51.022;3.664;2023-02-15T05:56:50;2.30;99.90
56044;DHT22;41912;51.022;3.664;2023-02-15T06:01:47;2.30;99.90
56044;DHT22;41912;51.022;3.664;2023-02-15T06:04:13;2.40;99.90
56044;DHT22;41912;51.022;3.664;2023-02-15T06:06:39;2.30;99.90
56044;DHT22;41912;51.022;3.664;2023-02-15T06:09:04;2.30;99.90
56044;DHT22;41912;51.022;3.664;2023-02-15T06:11:30;2.30;99.90
56044;DHT22;41912;51.022;3.664;2023-02-15T06:13:56;2.30;99.90
56044;DHT22;41912;51.022;3.664;2023-02-15T06:16:21;2.30;99.90
56044;DHT22;41912;51.022;3.664;2023-02-15T06:18:47;2.30;99.90
56044;DHT22;41912;51.022;3.664;2023-02-15T06:21:13;2.30;99.90
56044;DHT22;41912;51.022;3.664;2023-02-15T06:23:39;2.30;99.90
56044;DHT22;41912;51.022;3.664;2023-02-15T06:26:04;2.30;99.90
56044;DHT22;41912;51.022;3.664;2023-02-15T06:28:30;2.30;99.90
56044;DHT22;41912;51.022;3.664;2023-02-15T06:30:55;2.30;99.90
56044;DHT22;41912;51.022;3.664;2023-02-15T06:33:21;2.30;99.90
56044;DHT22;41912;51.022;3.664;2023-02-15T06:35:47;2.30;99.90
56044;DHT22;41912;51.022;3.664;2023-02-15T06:38:13;2.30;99.90
56044;DHT22;41912;51.022;3.664;2023-02-15T06:40:39;2.30;99.90
56044;DHT22;41912;51.022;3.664;2023-02-15T06:43:04;2.30;99.90
56044;DHT22;41912;51.022;3.664;2023-02-15T06:45:30;2.30;99.90
56044;DHT22;41912;51.022;3.664;2023-02-15T06:47:55;2.30;99.90
56044;DHT22;41912;51.022;3.664;2023-02-15T06:50:21;2.30;99.90
56044;DHT22;41912;51.022;3.664;2023-02-15T06:52:47;2.30;99.90
56044;DHT22;41912;51.022;3.664;2023-02-15T06:55:12;2.30;99.90
56044;DHT22;41912;51.022;3.664;2023-02-15T06:57:38;2.30;99.90
56044;DHT22;41912;51.022;3.664;2023-02-15T07:00:04;2.30;99.90
56044;DHT22;41912;51.022;3.664;2023-02-15T07:02:30;2.30;99.90
56044;DHT22;41912;51.022;3.664;2023-02-15T07:07:31;2.20;99.90
56044;DHT22;41912;51.022;3.664;2023-02-15T07:09:56;2.20;99.90
56044;DHT22;41912;51.022;3.664;2023-02-15T07:12:22;2.20;99.90
56044;DHT22;41912;51.022;3.664;2023-02-15T07:15:06;2.20;99.90
56044;DHT22;41912;51.022;3.664;2023-02-15T07:17:33;2.20;99.90
56044;DHT22;41912;51.022;3.664;2023-02-15T07:19:59;2.20;99.90
56044;DHT22;41912;51.022;3.664;2023-02-15T07:22:24;2.20;99.90
56044;DHT22;41912;51.022;3.664;2023-02-15T07:24:50;2.20;99.90
56044;DHT22;41912;51.022;3.664;2023-02-15T07:27:20;2.20;99.90
56044;DHT22;41912;51.022;3.664;2023-02-15T07:29:46;2.30;99.90
56044;DHT22;41912;51.022;3.664;2023-02-15T07:32:11;2.30;99.90
56044;DHT22;41912;51.022;3.664;2023-02-15T07:34:37;2.30;99.90
56044;DHT22;41912;51.022;3.664;2023-02-15T07:37:03;2.30;99.90
56044;DHT22;41912;51.022;3.664;2023-02-15T07:39:29;2.30;99.90
56044;DHT22;41912;51.022;3.664;2023-02-15T07:41:55;2.30;99.90
56044;DHT22;41912;51.022;3.664;2023-02-15T07:44:20;2.30;99.90
56044;DHT22;41912;51.022;3.664;2023-02-15T07:46:46;2.40;99.90
56044;DHT22;41912;51.022;3.664;2023-02-15T07:51:44;2.40;99.90
56044;DHT22;41912;51.022;3.664;2023-02-15T07:54:12;2.40;99.90
56044;DHT22;41912;51.022;3.664;2023-02-15T07:56:38;2.40;99.90
56044;DHT22;41912;51.022;3.664;2023-02-15T07:59:03;2.40;99.90
56044;DHT22;41912;51.022;3.664;2023-02-15T08:01:48;2.40;99.90
56044;DHT22;41912;51.022;3.664;2023-02-15T08:04:14;2.50;99.90
56044;DHT22;41912;51.022;3.664;2023-02-15T08:06:40;2.50;99.90
56044;DHT22;41912;51.022;3.664;2023-02-15T08:09:07;2.60;99.90
56044;DHT22;41912;51.022;3.664;2023-02-15T08:14:03;2.60;99.90
56044;DHT22;41912;51.022;3.664;2023-02-15T08:19:18;2.70;99.90
56044;DHT22;41912;51.022;3.664;2023-02-15T08:24:10;2.80;99.90
56044;DHT22;41912;51.022;3.664;2023-02-15T08:26:37;2.80;99.90
56044;DHT22;41912;51.022;3.664;2023-02-15T08:29:04;2.90;99.90
56044;DHT22;41912;51.022;3.664;2023-02-15T08:31:30;2.90;99.90
56044;DHT22;41912;51.022;3.664;2023-02-15T08:33:56;3.00;99.90
56044;DHT22;41912;51.022;3.664;2023-02-15T08:36:27;3.00;99.90
56044;DHT22;41912;51.022;3.664;2023-02-15T08:38:54;3.10;99.90
56044;DHT22;41912;51.022;3.664;2023-02-15T08:41:23;3.10;99.90
56044;DHT22;41912;51.022;3.664;2023-02-15T08:43:52;3.20;99.90
56044;DHT22;41912;51.022;3.664;2023-02-15T08:46:19;3.20;99.90
56044;DHT22;41912;51.022;3.664;2023-02-15T08:48:45;3.30;99.90
56044;DHT22;41912;51.022;3.664;2023-02-15T08:51:16;3.40;99.90
56044;DHT22;41912;51.022;3.664;2023-02-15T08:53:46;3.50;99.90
56044;DHT22;41912;51.022;3.664;2023-02-15T08:56:15;3.60;99.90
56044;DHT22;41912;51.022;3.664;2023-02-15T08:58:40;3.70;99.90
56044;DHT22;41912;51.022;3.664;2023-02-15T09:01:18;3.80;99.90
56044;DHT22;41912;51.022;3.664;2023-02-15T09:03:46;4.00;99.90
56044;DHT22;41912;51.022;3.664;2023-02-15T09:06:12;4.10;99.90
56044;DHT22;41912;51.022;3.664;2023-02-15T09:08:39;4.20;99.90
56044;DHT22;41912;51.022;3.664;2023-02-15T09:11:10;4.20;99.90
56044;DHT22;41912;51.022;3.664;2023-02-15T09:13:37;4.30;99.90
56044;DHT22;41912;51.022;3.664;2023-02-15T09:16:06;4.40;99.90
56044;DHT22;41912;51.022;3.664;2023-02-15T09:18:34;4.50;99.90
56044;DHT22;41912;51.022;3.664;2023-02-15T09:21:05;4.60;99.90
56044;DHT22;41912;51.022;3.664;2023-02-15T09:23:31;4.70;99.90
56044;DHT22;41912;51.022;3.664;2023-02-15T09:25:57;4.80;99.90
56044;DHT22;41912;51.022;3.664;2023-02-15T09:28:22;4.80;99.90
56044;DHT22;41912;51.022;3.664;2023-02-15T09:30:48;5.00;99.90
56044;DHT22;41912;51.022;3.664;2023-02-15T09:33:13;5.10;99.90
56044;DHT22;41912;51.022;3.664;2023-02-15T09:35:39;5.20;99.90
56044;DHT22;41912;51.022;3.664;2023-02-15T09:38:04;5.40;99.90
56044;DHT22;41912;51.022;3.664;2023-02-15T09:40:37;5.40;99.90
56044;DHT22;41912;51.022;3.664;2023-02-15T09:49:37;5.70;99.90
56044;DHT22;41912;51.022;3.664;2023-02-15T09:52:10;5.80;99.90
56044;DHT22;41912;51.022;3.664;2023-02-15T09:57:48;6.00;99.90
56044;DHT22;41912;51.022;3.664;2023-02-15T10:00:31;6.10;99.90
56044;DHT22;41912;51.022;3.664;2023-02-15T10:03:12;6.20;99.90
56044;DHT22;41912;51.022;3.664;2023-02-15T10:11:17;6.50;99.90
56044;DHT22;41912;51.022;3.664;2023-02-15T10:22:27;6.90;99.90
56044;DHT22;41912;51.022;3.664;2023-02-15T10:27:48;7.10;99.90
56044;DHT22;41912;51.022;3.664;2023-02-15T10:30:17;7.10;99.90
56044;DHT22;41912;51.022;3.664;2023-02-15T10:35:42;7.20;99.90
56044;DHT22;41912;51.022;3.664;2023-02-15T10:50:24;7.70;99.90
56044;DHT22;41912;51.022;3.664;2023-02-15T11:06:56;8.20;99.90
56044;DHT22;41912;51.022;3.664;2023-02-15T11:09:27;8.30;99.90
56044;DHT22;41912;51.022;3.664;2023-02-15T11:11:56;8.30;99.90
56044;DHT22;41912;51.022;3.664;2023-02-15T11:17:02;8.50;99.90
56044;DHT22;41912;51.022;3.664;2023-02-15T11:19:36;8.60;99.90
56044;DHT22;41912;51.022;3.664;2023-02-15T11:22:06;8.60;99.90
56044;DHT22;41912;51.022;3.664;2023-02-15T11:24:40;8.70;99.90
56044;DHT22;41912;51.022;3.664;2023-02-15T11:29:48;9.00;99.90
56044;DHT22;41912;51.022;3.664;2023-02-15T11:32:29;9.10;99.90
56044;DHT22;41912;51.022;3.664;2023-02-15T11:37:32;9.30;99.90
56044;DHT22;41912;51.022;3.664;2023-02-15T11:40:01;9.40;99.90
56044;DHT22;41912;51.022;3.664;2023-02-15T11:42:30;9.40;99.90
56044;DHT22;41912;51.022;3.664;2023-02-15T11:45:02;9.40;99.90
56044;DHT22;41912;51.022;3.664;2023-02-15T11:47:29;9.50;99.90
56044;DHT22;41912;51.022;3.664;2023-02-15T11:49:56;9.50;99.90
56044;DHT22;41912;51.022;3.664;2023-02-15T11:52:22;9.50;99.90
56044;DHT22;41912;51.022;3.664;2023-02-15T11:54:51;9.60;99.90
56044;DHT22;41912;51.022;3.664;2023-02-15T11:57:33;9.70;99.90
56044;DHT22;41912;51.022;3.664;2023-02-15T12:02:38;9.90;99.90
56044;DHT22;41912;51.022;3.664;2023-02-15T12:05:11;10.00;99.90
56044;DHT22;41912;51.022;3.664;2023-02-15T12:07:57;10.10;99.90
56044;DHT22;41912;51.022;3.664;2023-02-15T12:10:29;10.20;99.90
56044;DHT22;41912;51.022;3.664;2023-02-15T12:13:18;10.20;99.90
56044;DHT22;41912;51.022;3.664;2023-02-15T12:16:05;10.30;99.90
56044;DHT22;41912;51.022;3.664;2023-02-15T12:18:43;10.30;99.90
56044;DHT22;41912;51.022;3.664;2023-02-15T12:21:23;10.40;99.90
56044;DHT22;41912;51.022;3.664;2023-02-15T12:24:00;10.40;99.90
56044;DHT22;41912;51.022;3.664;2023-02-15T12:26:34;10.40;99.90
56044;DHT22;41912;51.022;3.664;2023-02-15T12:29:20;10.50;99.90
56044;DHT22;41912;51.022;3.664;2023-02-15T12:31:49;10.50;99.90
56044;DHT22;41912;51.022;3.664;2023-02-15T12:34:23;10.60;99.90
56044;DHT22;41912;51.022;3.664;2023-02-15T12:36:53;10.70;99.90
56044;DHT22;41912;51.022;3.664;2023-02-15T12:39:29;10.70;99.90
56044;DHT22;41912;51.022;3.664;2023-02-15T12:44:29;10.80;99.90
56044;DHT22;41912;51.022;3.664;2023-02-15T12:46:57;10.80;99.90
56044;DHT22;41912;51.022;3.664;2023-02-15T12:49:23;10.90;99.90
56044;DHT22;41912;51.022;3.664;2023-02-15T12:51:55;10.90;99.90
56044;DHT22;41912;51.022;3.664;2023-02-15T13:02:53;11.10;99.90
56044;DHT22;41912;51.022;3.664;2023-02-15T13:07:58;11.30;99.90
56044;DHT22;41912;51.022;3.664;2023-02-15T13:10:29;11.40;99.90
56044;DHT22;41912;51.022;3.664;2023-02-15T13:12:56;11.40;99.90
56044;DHT22;41912;51.022;3.664;2023-02-15T13:15:30;11.50;99.90
56044;DHT22;41912;51.022;3.664;2023-02-15T13:17:58;11.50;99.90
56044;DHT22;41912;51.022;3.664;2023-02-15T13:20:25;11.60;99.90
56044;DHT22;41912;51.022;3.664;2023-02-15T13:22:58;11.70;99.90
56044;DHT22;41912;51.022;3.664;2023-02-15T13:25:28;11.70;99.90
56044;DHT22;41912;51.022;3.664;2023-02-15T13:28:05;11.80;99.90
56044;DHT22;41912;51.022;3.664;2023-02-15T13:30:52;11.80;99.90
56044;DHT22;41912;51.022;3.664;2023-02-15T13:33:36;11.90;99.90
56044;DHT22;41912;51.022;3.664;2023-02-15T13:36:15;12.00;99.90
56044;DHT22;41912;51.022;3.664;2023-02-15T13:41:32;12.10;99.90
56044;DHT22;41912;51.022;3.664;2023-02-15T13:49:40;12.20;99.90
56044;DHT22;41912;51.022;3.664;2023-02-15T13:52:22;12.30;99.90
56044;DHT22;41912;51.022;3.664;2023-02-15T13:57:44;12.30;99.90
56044;DHT22;41912;51.022;3.664;2023-02-15T14:00:25;12.30;99.90
56044;DHT22;41912;51.022;3.664;2023-02-15T14:19:27;12.50;99.90
56044;DHT22;41912;51.022;3.664;2023-02-15T14:24:27;12.60;99.90
56044;DHT22;41912;51.022;3.664;2023-02-15T14:27:21;12.60;99.90
56044;DHT22;41912;51.022;3.664;2023-02-15T14:30:00;12.70;99.90
56044;DHT22;41912;51.022;3.664;2023-02-15T14:32:38;12.70;99.90
56044;DHT22;41912;51.022;3.664;2023-02-15T14:35:15;12.70;99.90
56044;DHT22;41912;51.022;3.664;2023-02-15T14:43:39;12.70;99.90
56044;DHT22;41912;51.022;3.664;2023-02-15T14:48:45;12.70;99.90
56044;DHT22;41912;51.022;3.664;2023-02-15T14:59:37;12.70;99.90
56044;DHT22;41912;51.022;3.664;2023-02-15T15:04:33;12.70;99.90
56044;DHT22;41912;51.022;3.664;2023-02-15T15:09:40;12.60;99.90
56044;DHT22;41912;51.022;3.664;2023-02-15T15:14:48;12.60;99.90
56044;DHT22;41912;51.022;3.664;2023-02-15T15:22:31;12.50;99.90
56044;DHT22;41912;51.022;3.664;2023-02-15T15:49:08;12.30;99.90
56044;DHT22;41912;51.022;3.664;2023-02-15T15:51:34;12.30;99.90
56044;DHT22;41912;51.022;3.664;2023-02-15T15:54:04;12.30;99.90
56044;DHT22;41912;51.022;3.664;2023-02-15T15:56:32;12.30;99.90
56044;DHT22;41912;51.022;3.664;2023-02-15T15:59:02;12.30;99.90
56044;DHT22;41912;51.022;3.664;2023-02-15T16:01:35;12.30;99.90
56044;DHT22;41912;51.022;3.664;2023-02-15T16:04:03;12.30;99.90
56044;DHT22;41912;51.022;3.664;2023-02-15T16:06:35;12.40;99.90
56044;DHT22;41912;51.022;3.664;2023-02-15T16:09:12;12.40;99.90
56044;DHT22;41912;51.022;3.664;2023-02-15T16:11:39;12.50;99.90
56044;DHT22;41912;51.022;3.664;2023-02-15T16:14:35;12.50;99.90
56044;DHT22;41912;51.022;3.664;2023-02-15T16:17:05;12.60;99.90
56044;DHT22;41912;51.022;3.664;2023-02-15T16:19:37;12.60;99.90
56044;DHT22;41912;51.022;3.664;2023-02-15T16:22:04;12.50;99.90
56044;DHT22;41912;51.022;3.664;2023-02-15T16:27:32;12.50;99.90
56044;DHT22;41912;51.022;3.664;2023-02-15T16:30:30;12.40;99.90
56044;DHT22;41912;51.022;3.664;2023-02-15T16:35:33;12.30;99.90
56044;DHT22;41912;51.022;3.664;2023-02-15T16:38:00;12.30;99.90
56044;DHT22;41912;51.022;3.664;2023-02-15T16:43:02;12.30;99.90
56044;DHT22;41912;51.022;3.664;2023-02-15T16:45:31;12.20;99.90
56044;DHT22;41912;51.022;3.664;2023-02-15T16:48:00;12.10;99.90
56044;DHT22;41912;51.022;3.664;2023-02-15T16:50:33;12.10;99.90
56044;DHT22;41912;51.022;3.664;2023-02-15T16:53:00;12.10;99.90
56044;DHT22;41912;51.022;3.664;2023-02-15T16:55:30;12.10;99.90
56044;DHT22;41912;51.022;3.664;2023-02-15T16:58:01;12.00;99.90
56044;DHT22;41912;51.022;3.664;2023-02-15T17:00:32;12.00;99.90
56044;DHT22;41912;51.022;3.664;2023-02-15T17:03:00;12.00;99.90
56044;DHT22;41912;51.022;3.664;2023-02-15T17:05:41;11.90;99.90
56044;DHT22;41912;51.022;3.664;2023-02-15T17:08:17;11.90;99.90
56044;DHT22;41912;51.022;3.664;2023-02-15T17:11:04;11.90;99.90
56044;DHT22;41912;51.022;3.664;2023-02-15T17:13:30;11.90;99.90
56044;DHT22;41912;51.022;3.664;2023-02-15T17:18:30;11.70;99.90
56044;DHT22;41912;51.022;3.664;2023-02-15T17:21:00;11.70;99.90
56044;DHT22;41912;51.022;3.664;2023-02-15T17:23:36;11.70;99.90
56044;DHT22;41912;51.022;3.664;2023-02-15T17:26:35;11.70;99.90
56044;DHT22;41912;51.022;3.664;2023-02-15T17:29:22;11.60;99.90
56044;DHT22;41912;51.022;3.664;2023-02-15T17:31:51;11.50;99.90
56044;DHT22;41912;51.022;3.664;2023-02-15T17:39:55;11.40;99.90
56044;DHT22;41912;51.022;3.664;2023-02-15T17:42:20;11.40;99.90
56044;DHT22;41912;51.022;3.664;2023-02-15T17:44:48;11.30;99.90
56044;DHT22;41912;51.022;3.664;2023-02-15T17:47:20;11.40;99.90
56044;DHT22;41912;51.022;3.664;2023-02-15T17:49:48;11.30;99.90
56044;DHT22;41912;51.022;3.664;2023-02-15T17:52:15;11.30;99.90
56044;DHT22;41912;51.022;3.664;2023-02-15T17:54:42;11.20;99.90
56044;DHT22;41912;51.022;3.664;2023-02-15T17:57:27;11.20;99.90
56044;DHT22;41912;51.022;3.664;2023-02-15T17:59:53;11.20;99.90
56044;DHT22;41912;51.022;3.664;2023-02-15T18:02:38;11.10;99.90
56044;DHT22;41912;51.022;3.664;2023-02-15T18:05:22;11.00;99.90
56044;DHT22;41912;51.022;3.664;2023-02-15T18:08:14;10.90;99.90
56044;DHT22;41912;51.022;3.664;2023-02-15T18:10:59;10.80;99.90
56044;DHT22;41912;51.022;3.664;2023-02-15T18:13:43;10.70;99.90
56044;DHT22;41912;51.022;3.664;2023-02-15T18:16:22;10.60;99.90
56044;DHT22;41912;51.022;3.664;2023-02-15T18:18:48;10.70;99.90
56044;DHT22;41912;51.022;3.664;2023-02-15T18:21:14;10.70;99.90
56044;DHT22;41912;51.022;3.664;2023-02-15T18:23:41;10.60;99.90
56044;DHT22;41912;51.022;3.664;2023-02-15T18:26:11;10.60;99.90
56044;DHT22;41912;51.022;3.664;2023-02-15T18:28:37;10.60;99.90
56044;DHT22;41912;51.022;3.664;2023-02-15T18:31:03;10.60;99.90
56044;DHT22;41912;51.022;3.664;2023-02-15T18:33:39;10.50;99.90
56044;DHT22;41912;51.022;3.664;2023-02-15T18:36:08;10.50;99.90
56044;DHT22;41912;51.022;3.664;2023-02-15T18:38:37;10.50;99.90
56044;DHT22;41912;51.022;3.664;2023-02-15T18:41:03;10.50;99.90
56044;DHT22;41912;51.022;3.664;2023-02-15T18:43:30;10.40;99.90
56044;DHT22;41912;51.022;3.664;2023-02-15T18:45:55;10.40;99.90
56044;DHT22;41912;51.022;3.664;2023-02-15T18:48:21;10.40;99.90
56044;DHT22;41912;51.022;3.664;2023-02-15T18:50:47;10.40;99.90
56044;DHT22;41912;51.022;3.664;2023-02-15T18:53:18;10.40;99.90
56044;DHT22;41912;51.022;3.664;2023-02-15T18:55:45;10.40;99.90
56044;DHT22;41912;51.022;3.664;2023-02-15T18:58:15;10.40;99.90
56044;DHT22;41912;51.022;3.664;2023-02-15T19:00:41;10.40;99.90
56044;DHT22;41912;51.022;3.664;2023-02-15T19:03:14;10.40;99.90
56044;DHT22;41912;51.022;3.664;2023-02-15T19:05:44;10.40;99.90
56044;DHT22;41912;51.022;3.664;2023-02-15T19:08:18;10.40;99.90
56044;DHT22;41912;51.022;3.664;2023-02-15T19:10:46;10.30;99.90
56044;DHT22;41912;51.022;3.664;2023-02-15T19:13:12;10.30;99.90
56044;DHT22;41912;51.022;3.664;2023-02-15T19:15:38;10.30;99.90
56044;DHT22;41912;51.022;3.664;2023-02-15T19:18:04;10.30;99.90
56044;DHT22;41912;51.022;3.664;2023-02-15T19:20:41;10.30;99.90
56044;DHT22;41912;51.022;3.664;2023-02-15T19:23:15;10.20;99.90
56044;DHT22;41912;51.022;3.664;2023-02-15T19:25:44;10.20;99.90
56044;DHT22;41912;51.022;3.664;2023-02-15T19:28:16;10.00;99.90
56044;DHT22;41912;51.022;3.664;2023-02-15T19:30:42;10.00;99.90
56044;DHT22;41912;51.022;3.664;2023-02-15T19:33:18;10.00;99.90
56044;DHT22;41912;51.022;3.664;2023-02-15T19:35:46;10.00;99.90
56044;DHT22;41912;51.022;3.664;2023-02-15T19:38:19;9.90;99.90
56044;DHT22;41912;51.022;3.664;2023-02-15T19:40:46;9.90;99.90
56044;DHT22;41912;51.022;3.664;2023-02-15T19:43:19;9.90;99.90
56044;DHT22;41912;51.022;3.664;2023-02-15T19:45:47;9.90;99.90
56044;DHT22;41912;51.022;3.664;2023-02-15T19:48:16;9.90;99.90
56044;DHT22;41912;51.022;3.664;2023-02-15T19:50:44;9.80;99.90
56044;DHT22;41912;51.022;3.664;2023-02-15T19:53:27;9.80;99.90
56044;DHT22;41912;51.022;3.664;2023-02-15T19:55:53;9.70;99.90
56044;DHT22;41912;51.022;3.664;2023-02-15T19:58:19;9.70;99.90
56044;DHT22;41912;51.022;3.664;2023-02-15T20:00:46;9.60;99.90